Time;durP1;ratioP1;P1;durP2;ratioP2;P2;SDS_P1;SDS_P2;PMS_P1;PMS_P2;Temp;Humidity;BMP_temperature;BMP_pressure;BME280_temperature;BME280_humidity;BME280_pressure;Samples;Min_cycle;Max_cycle;Signal;HPM_P1;HPM_P2
2022/12/19 00:01:15;;;;;;;;;;;;;;;28.59;51.39;98844.02;611260;232;66814;-67
2022/12/19 00:03:38;;;;;;;;;;;;;;;28.59;51.19;98844.02;611176;231;64787;-67
2022/12/19 00:06:06;;;;;;;;;;;;;;;28.59;51.18;98843.22;611237;232;64711;-67
2022/12/19 00:08:34;;;;;;;;;;;;;;;28.58;49.98;98850.53;611281;232;66749;-67
2022/12/19 00:11:02;;;;;;;;;;;;;;;28.58;51.20;98863.25;611314;232;65086;-67
2022/12/19 00:13:30;;;;;;;;;;;;;;;28.57;51.69;98862.45;611262;232;64957;-67
2022/12/19 00:16:02;;;;;;;;;;;;;;;28.56;49.83;98871.63;611254;232;67393;-67
2022/12/19 00:18:30;;;;;;;;;;;;;;;28.55;50.17;98870.82;610971;232;62749;-69
2022/12/19 00:21:02;;;;;;;;;;;;;;;28.54;50.49;98874.63;611240;232;67217;-69
2022/12/19 00:23:31;;;;;;;;;;;;;;;28.55;49.72;98883.54;611255;232;67050;-68
2022/12/19 00:26:09;;;;;;;;;;;;;;;28.53;50.41;98891.12;611327;232;65233;-68
2022/12/19 00:28:40;;;;;;;;;;;;;;;28.53;51.33;98883.80;611222;232;64986;-68
2022/12/19 00:31:08;;;;;;;;;;;;;;;28.53;51.47;98888.41;611240;232;66944;-68
2022/12/19 00:33:39;;;;;;;;;;;;;;;28.51;51.47;98888.70;611294;232;62503;-68
2022/12/19 00:36:08;;;;;;;;;;;;;;;28.51;48.79;98886.00;611266;232;64699;-68
2022/12/19 00:38:35;;;;;;;;;;;;;;;28.50;50.63;98889.77;611300;232;67085;-67
2022/12/19 00:41:07;;;;;;;;;;;;;;;28.49;51.54;98888.16;611243;232;65026;-67
2022/12/19 00:43:36;;;;;;;;;;;;;;;28.48;50.03;98885.72;611188;232;66904;-67
2022/12/19 00:46:08;;;;;;;;;;;;;;;28.47;50.25;98890.32;611284;232;64804;-67
2022/12/19 00:48:36;;;;;;;;;;;;;;;28.47;51.37;98894.92;611286;232;65009;-67
2022/12/19 00:51:05;;;;;;;;;;;;;;;28.47;50.80;98889.52;611307;232;66156;-67
2022/12/19 00:53:33;;;;;;;;;;;;;;;28.46;50.16;98893.32;611314;232;65724;-67
2022/12/19 00:56:04;;;;;;;;;;;;;;;28.45;50.21;98897.89;611225;232;62752;-67
2022/12/19 00:58:32;;;;;;;;;;;;;;;28.44;50.96;98893.58;611275;232;67027;-67
2022/12/19 01:01:01;;;;;;;;;;;;;;;28.43;51.34;98900.09;611252;232;67078;-67
2022/12/19 01:03:29;;;;;;;;;;;;;;;28.43;51.90;98893.84;611181;232;63042;-67
2022/12/19 01:05:57;;;;;;;;;;;;;;;28.42;50.55;98886.80;611293;232;65887;-67
2022/12/19 01:08:24;;;;;;;;;;;;;;;28.41;51.38;98890.59;611237;232;67020;-67
2022/12/19 01:10:53;;;;;;;;;;;;;;;28.42;52.53;98892.20;611222;232;62858;-67
2022/12/19 01:13:21;;;;;;;;;;;;;;;28.40;50.07;98895.20;611256;232;65921;-67
2022/12/19 01:15:49;;;;;;;;;;;;;;;28.40;51.45;98897.06;611250;232;64918;-68
2022/12/19 01:18:17;;;;;;;;;;;;;;;28.38;51.09;98897.36;611283;232;65113;-68
2022/12/19 01:20:46;;;;;;;;;;;;;;;28.38;50.89;98896.55;611249;232;46052;-68
2022/12/19 01:23:14;;;;;;;;;;;;;;;28.38;50.73;98899.26;611259;232;64476;-68
2022/12/19 01:25:42;;;;;;;;;;;;;;;28.36;50.75;98896.81;611241;232;65340;-68
2022/12/19 01:28:13;;;;;;;;;;;;;;;28.36;51.94;98898.72;611504;232;64594;-68
2022/12/19 01:30:41;;;;;;;;;;;;;;;28.35;51.18;98897.91;612110;232;64757;-68
2022/12/19 01:33:11;;;;;;;;;;;;;;;28.34;50.92;98901.68;612175;232;65042;-68
2022/12/19 01:35:39;;;;;;;;;;;;;;;28.34;49.82;98899.78;612095;232;67543;-68
2022/12/19 01:38:07;;;;;;;;;;;;;;;28.33;51.21;98902.77;612129;232;64515;-68
2022/12/19 01:40:35;;;;;;;;;;;;;;;28.32;50.43;98903.87;612145;232;63593;-68
2022/12/19 01:43:03;;;;;;;;;;;;;;;28.32;50.53;98903.87;612137;232;67054;-67
2022/12/19 01:45:31;;;;;;;;;;;;;;;28.31;50.90;98902.23;612197;232;66937;-67
2022/12/19 01:48:01;;;;;;;;;;;;;;;28.29;50.29;98899.82;612152;232;65068;-67
2022/12/19 01:50:35;;;;;;;;;;;;;;;28.29;50.63;98904.39;612121;232;64347;-67
2022/12/19 01:53:05;;;;;;;;;;;;;;;28.29;50.20;98904.39;612052;231;65095;-67
2022/12/19 01:55:33;;;;;;;;;;;;;;;28.27;51.00;98907.39;612139;232;64211;-67
2022/12/19 01:58:01;;;;;;;;;;;;;;;28.26;50.82;98905.75;612214;232;65068;-67
2022/12/19 02:00:29;;;;;;;;;;;;;;;28.25;51.26;98906.84;612193;232;65875;-67
2022/12/19 02:03:06;;;;;;;;;;;;;;;28.25;50.44;98897.92;612096;232;62666;-67
2022/12/19 02:05:34;;;;;;;;;;;;;;;28.24;50.66;98896.31;612036;232;67191;-68
2022/12/19 02:08:02;;;;;;;;;;;;;;;28.24;50.88;98899.02;612150;232;67133;-68
2022/12/19 02:10:30;;;;;;;;;;;;;;;28.23;50.74;98905.49;612133;232;65051;-68
2022/12/19 02:12:58;;;;;;;;;;;;;;;28.23;51.40;98908.20;612189;232;64922;-68
2022/12/19 02:15:27;;;;;;;;;;;;;;;28.22;50.26;98901.18;612109;232;67266;-68
2022/12/19 02:18:06;;;;;;;;;;;;;;;28.20;50.57;98906.84;612142;232;65696;-68
2022/12/19 02:20:51;;;;;;;;;;;;;;;28.19;50.49;98910.64;611465;232;64849;-68
2022/12/19 02:23:27;;;;;;;;;;;;;;;28.19;50.85;98899.03;612143;232;64785;-68
2022/12/19 02:25:59;;;;;;;;;;;;;;;28.18;50.54;98908.20;612141;232;65714;-68
2022/12/19 02:28:29;;;;;;;;;;;;;;;28.16;51.20;98911.19;611753;232;64695;-67
2022/12/19 02:31:17;;;;;;;;;;;;;;;28.16;51.09;98911.19;611301;232;68583;-68
2022/12/19 02:33:47;;;;;;;;;;;;;;;28.15;51.73;98903.34;611257;232;65724;-67
2022/12/19 02:36:17;;;;;;;;;;;;;;;28.13;50.28;98906.34;610939;232;67690;-67
2022/12/19 02:38:46;;;;;;;;;;;;;;;28.12;50.94;98904.70;611191;231;66986;-67
2022/12/19 02:41:24;;;;;;;;;;;;;;;28.11;50.64;98903.89;611222;232;65003;-68
2022/12/19 02:43:54;;;;;;;;;;;;;;;28.10;50.93;98899.58;611158;232;67264;-68
2022/12/19 02:46:24;;;;;;;;;;;;;;;28.11;49.43;98903.09;606312;232;68448;-68
2022/12/19 02:48:52;;;;;;;;;;;;;;;28.09;50.24;98903.34;611237;232;63162;-68
2022/12/19 02:51:19;;;;;;;;;;;;;;;28.08;50.23;98904.44;611258;232;67165;-68
2022/12/19 02:53:48;;;;;;;;;;;;;;;28.09;50.28;98905.25;611232;232;65866;-68
2022/12/19 02:56:20;;;;;;;;;;;;;;;28.08;50.12;98909.04;611255;232;65221;-67
2022/12/19 02:58:56;;;;;;;;;;;;;;;28.07;49.84;98902.00;610051;232;67038;-68
2022/12/19 03:01:26;;;;;;;;;;;;;;;28.06;49.38;98906.59;611088;232;64858;-68
2022/12/19 03:03:58;;;;;;;;;;;;;;;28.05;50.89;98913.09;611231;232;64992;-68
2022/12/19 03:06:27;;;;;;;;;;;;;;;28.03;52.03;98907.14;611269;232;66695;-68
2022/12/19 03:09:02;;;;;;;;;;;;;;;28.04;50.01;98918.77;611201;232;65835;-68
2022/12/19 03:11:34;;;;;;;;;;;;;;;28.02;50.75;98921.75;611113;232;63006;-68
2022/12/19 03:14:03;;;;;;;;;;;;;;;28.02;49.18;98921.75;611281;232;65210;-68
2022/12/19 03:16:32;;;;;;;;;;;;;;;28.01;50.44;98922.01;611186;232;64818;-68
2022/12/19 03:19:00;;;;;;;;;;;;;;;27.99;50.98;98916.06;611222;232;64934;-68
2022/12/19 03:21:38;;;;;;;;;;;;;;;27.99;50.19;98916.89;611250;232;64977;-68
2022/12/19 03:24:07;;;;;;;;;;;;;;;27.98;49.82;98920.66;611191;232;67056;-68
2022/12/19 03:26:39;;;;;;;;;;;;;;;27.98;51.04;98912.55;611232;232;62968;-68
2022/12/19 03:29:09;;;;;;;;;;;;;;;27.96;50.49;98912.00;611153;232;65020;-68
2022/12/19 03:31:37;;;;;;;;;;;;;;;27.96;50.44;98911.20;611244;232;64980;-68
2022/12/19 03:34:06;;;;;;;;;;;;;;;27.93;50.90;98901.73;611214;232;65227;-68
2022/12/19 03:36:35;;;;;;;;;;;;;;;27.93;50.57;98893.64;611158;232;67771;-68
2022/12/19 03:39:04;;;;;;;;;;;;;;;27.92;50.54;98889.32;611167;231;67194;-68
2022/12/19 03:44:19;;;;;;;;;;;;;;;27.89;52.81;98885.27;611292;232;67124;-67
2022/12/19 03:46:48;;;;;;;;;;;;;;;27.89;50.23;98896.08;611227;232;67638;-67
2022/12/19 03:49:15;;;;;;;;;;;;;;;27.87;53.41;98897.43;611142;232;65126;-67
2022/12/19 03:51:56;;;;;;;;;;;;;;;27.87;51.10;98903.64;611249;232;67176;-67
2022/12/19 03:54:25;;;;;;;;;;;;;;;27.87;50.31;98894.73;601795;232;66477;-67
2022/12/19 03:56:57;;;;;;;;;;;;;;;27.86;52.87;98910.13;611293;232;65243;-67
2022/12/19 03:59:26;;;;;;;;;;;;;;;27.84;51.63;98903.37;611165;232;72501;-67
2022/12/19 04:01:55;;;;;;;;;;;;;;;27.84;52.41;98911.48;610439;232;67148;-67
2022/12/19 04:04:24;;;;;;;;;;;;;;;27.82;53.09;98908.23;611260;232;64950;-67
2022/12/19 04:06:52;;;;;;;;;;;;;;;27.81;50.96;98914.73;611258;232;64580;-67
2022/12/19 04:09:21;;;;;;;;;;;;;;;27.81;50.57;98914.73;611287;232;66632;-67
2022/12/19 04:11:54;;;;;;;;;;;;;;;27.81;50.33;98920.94;611294;232;62732;-67
2022/12/19 04:14:29;;;;;;;;;;;;;;;27.81;52.26;98930.94;611047;231;64591;-67
2022/12/19 04:17:16;;;;;;;;;;;;;;;27.79;51.88;98933.87;611087;232;67079;-67
2022/12/19 04:19:45;;;;;;;;;;;;;;;27.77;51.45;98946.02;611192;232;65046;-67
2022/12/19 04:22:15;;;;;;;;;;;;;;;27.77;51.26;98956.83;611145;232;66737;-67
2022/12/19 04:24:44;;;;;;;;;;;;;;;27.77;50.86;98957.63;610475;232;67105;-67
2022/12/19 04:27:12;;;;;;;;;;;;;;;27.76;52.31;98952.52;611266;232;62857;-67
2022/12/19 04:29:41;;;;;;;;;;;;;;;27.75;53.45;98959.81;611200;232;67513;-67
2022/12/19 04:32:10;;;;;;;;;;;;;;;27.74;52.51;98968.17;611211;232;65678;-67
2022/12/19 04:34:37;;;;;;;;;;;;;;;27.73;53.74;98967.36;611225;232;62805;-67
2022/12/19 04:37:07;;;;;;;;;;;;;;;27.71;52.83;98966.02;611073;232;64956;-67
2022/12/19 04:39:34;;;;;;;;;;;;;;;27.70;51.76;98962.50;611276;232;67074;-67
2022/12/19 04:42:02;;;;;;;;;;;;;;;27.70;52.78;98972.50;611217;232;65365;-67
2022/12/19 04:44:29;;;;;;;;;;;;;;;27.68;52.76;98975.46;611254;232;64897;-67
2022/12/19 04:46:56;;;;;;;;;;;;;;;27.68;51.38;98981.66;611271;232;64931;-66
2022/12/19 04:49:24;;;;;;;;;;;;;;;27.67;52.75;98985.45;611182;232;65180;-67
2022/12/19 04:51:52;;;;;;;;;;;;;;;27.66;52.79;98991.95;611302;232;67403;-67
2022/12/19 04:54:21;;;;;;;;;;;;;;;27.67;52.18;98990.86;611171;231;67113;-66
2022/12/19 04:56:48;;;;;;;;;;;;;;;27.65;51.21;98997.61;611271;232;65032;-67
2022/12/19 04:59:16;;;;;;;;;;;;;;;27.65;53.63;98992.20;611232;232;67290;-66
2022/12/19 05:01:43;;;;;;;;;;;;;;;27.63;52.29;98995.16;611247;232;67018;-67
2022/12/19 05:04:11;;;;;;;;;;;;;;;27.63;52.90;98991.66;611250;232;65103;-66
2022/12/19 05:06:38;;;;;;;;;;;;;;;27.61;51.72;98981.13;611286;232;67183;-67
2022/12/19 05:09:06;;;;;;;;;;;;;;;27.61;53.78;98981.13;611286;232;66934;-67
2022/12/19 05:11:33;;;;;;;;;;;;;;;27.59;52.78;98985.98;611238;232;65020;-67
2022/12/19 05:14:01;;;;;;;;;;;;;;;27.59;52.53;98988.69;611279;232;64855;-67
2022/12/19 05:16:28;;;;;;;;;;;;;;;27.58;52.45;98987.07;611212;232;65137;-67
2022/12/19 05:18:56;;;;;;;;;;;;;;;27.57;53.29;98988.13;611299;232;62760;-67
2022/12/19 05:21:23;;;;;;;;;;;;;;;27.57;51.45;98990.83;611278;232;65008;-67
2022/12/19 05:23:50;;;;;;;;;;;;;;;27.57;51.23;98990.83;611257;232;64765;-67
2022/12/19 05:26:18;;;;;;;;;;;;;;;27.58;50.77;98991.64;611277;232;62885;-67
2022/12/19 05:28:46;;;;;;;;;;;;;;;27.56;53.62;98986.52;611743;232;65874;-67
2022/12/19 05:31:15;;;;;;;;;;;;;;;27.56;51.08;98986.52;612154;232;64894;-67
2022/12/19 05:33:43;;;;;;;;;;;;;;;27.56;52.34;98993.81;612153;232;62878;-68
2022/12/19 05:36:11;;;;;;;;;;;;;;;27.56;51.15;99001.92;612154;232;64749;-68
2022/12/19 05:38:39;;;;;;;;;;;;;;;27.54;51.77;99004.06;612131;232;67246;-68
2022/12/19 05:41:07;;;;;;;;;;;;;;;27.55;53.02;99009.19;612117;232;64863;-68
2022/12/19 05:43:35;;;;;;;;;;;;;;;27.56;52.99;99012.72;612129;232;67491;-68
2022/12/19 05:46:04;;;;;;;;;;;;;;;27.56;53.37;99010.02;612136;232;67058;-68
2022/12/19 05:48:32;;;;;;;;;;;;;;;27.54;52.63;99012.17;611911;231;65044;-68
2022/12/19 05:50:59;;;;;;;;;;;;;;;27.53;53.62;99005.96;612153;232;67214;-68
2022/12/19 05:53:27;;;;;;;;;;;;;;;27.53;52.20;99005.96;612140;232;66982;-68
2022/12/19 05:56:04;;;;;;;;;;;;;;;27.53;52.91;99005.13;612083;232;62933;-68
2022/12/19 05:58:32;;;;;;;;;;;;;;;27.54;52.52;99012.17;612226;232;65080;-68
2022/12/19 06:01:03;;;;;;;;;;;;;;;27.53;53.07;99010.52;612108;232;67190;-68
2022/12/19 06:03:31;;;;;;;;;;;;;;;27.53;52.24;99016.77;612157;232;65176;-68
2022/12/19 06:06:00;;;;;;;;;;;;;;;27.53;52.89;99021.33;612135;232;67232;-68
2022/12/19 06:08:28;;;;;;;;;;;;;;;27.53;51.71;99021.33;612080;232;66997;-69
2022/12/19 06:10:57;;;;;;;;;;;;;;;27.52;52.94;99020.52;612179;232;65047;-68
2022/12/19 06:13:26;;;;;;;;;;;;;;;27.53;50.73;99022.16;612135;232;67237;-68
2022/12/19 06:16:01;;;;;;;;;;;;;;;27.53;52.60;99016.77;612108;232;67034;-68
2022/12/19 06:18:29;;;;;;;;;;;;;;;27.55;51.89;99028.09;612147;232;63048;-68
2022/12/19 06:20:58;;;;;;;;;;;;;;;27.53;53.58;99022.16;612076;232;64886;-69
2022/12/19 06:23:26;;;;;;;;;;;;;;;27.54;51.12;99026.48;611920;231;64588;-68
2022/12/19 06:25:55;;;;;;;;;;;;;;;27.54;51.17;99034.58;612180;232;62997;-69
2022/12/19 06:28:22;;;;;;;;;;;;;;;27.54;52.18;99039.17;612139;232;64968;-69
2022/12/19 06:30:50;;;;;;;;;;;;;;;27.54;53.30;99045.38;612068;232;67408;-69
2022/12/19 06:33:17;;;;;;;;;;;;;;;27.57;52.23;99049.44;612108;232;65068;-69
2022/12/19 06:35:45;;;;;;;;;;;;;;;27.56;51.16;99054.03;612138;232;65008;-69
2022/12/19 06:38:14;;;;;;;;;;;;;;;27.56;50.96;99051.34;612214;232;66926;-69
2022/12/19 06:43:30;;;;;;;;;;;;;;;27.57;51.01;99060.25;612118;232;64948;-68
2022/12/19 06:45:57;;;;;;;;;;;;;;;27.57;53.37;99061.05;612101;232;64911;-69
2022/12/19 06:48:26;;;;;;;;;;;;;;;27.58;51.53;99062.69;611929;232;62917;-68
2022/12/19 06:50:54;;;;;;;;;;;;;;;27.59;51.84;99064.30;611916;232;66855;-68
2022/12/19 06:53:22;;;;;;;;;;;;;;;27.59;52.22;99069.70;612094;232;67036;-69
2022/12/19 06:55:51;;;;;;;;;;;;;;;27.60;51.74;99068.62;611389;232;65062;-73
2022/12/19 06:58:18;;;;;;;;;;;;;;;27.59;51.14;99064.30;609514;232;67249;-71
2022/12/19 07:00:46;;;;;;;;;;;;;;;27.57;51.53;99071.85;611971;232;66873;-68
2022/12/19 07:03:15;;;;;;;;;;;;;;;27.56;52.80;99077.53;612038;232;64886;-68
2022/12/19 07:05:43;;;;;;;;;;;;;;;27.52;51.53;99074.53;612146;232;67220;-67
2022/12/19 07:08:10;;;;;;;;;;;;;;;27.48;51.75;99080.75;612030;232;67142;-70
2022/12/19 07:10:38;;;;;;;;;;;;;;;27.45;51.83;99080.19;609049;232;63100;-68
2022/12/19 07:13:05;;;;;;;;;;;;;;;27.43;53.04;99073.43;610035;232;64606;-68
2022/12/19 07:15:33;;;;;;;;;;;;;;;27.38;49.31;99076.91;610033;232;67258;-68
2022/12/19 07:18:03;;;;;;;;;;;;;;;27.38;50.39;99078.80;610071;232;65053;-68
2022/12/19 07:20:32;;;;;;;;;;;;;;;27.38;49.55;99079.61;610038;232;67207;-67
2022/12/19 07:22:59;;;;;;;;;;;;;;;27.39;49.19;99080.41;610074;232;67087;-67
2022/12/19 07:25:27;;;;;;;;;;;;;;;27.39;49.17;99080.41;609374;232;65147;-67
2022/12/19 07:27:54;;;;;;;;;;;;;;;27.40;51.90;99095.56;609887;232;67250;-68
2022/12/19 07:30:24;;;;;;;;;;;;;;;27.39;50.07;99099.31;602779;232;67041;-68
2022/12/19 07:32:51;;;;;;;;;;;;;;;27.40;52.58;99088.27;602125;235;63121;-66
2022/12/19 07:35:20;;;;;;;;;;;;;;;27.41;49.14;99094.47;601945;235;67466;-67
2022/12/19 07:37:47;;;;;;;;;;;;;;;27.43;51.68;99095.84;602181;235;66852;-65
2022/12/19 07:40:15;;;;;;;;;;;;;;;27.43;49.54;99103.13;602040;235;63843;-66
2022/12/19 07:42:42;;;;;;;;;;;;;;;27.43;50.72;99108.53;602208;235;65195;-65
2022/12/19 07:45:11;;;;;;;;;;;;;;;27.45;49.66;99106.39;602093;235;67827;-66
2022/12/19 07:47:38;;;;;;;;;;;;;;;27.44;48.51;99104.74;601992;235;64387;-66
2022/12/19 07:50:06;;;;;;;;;;;;;;;27.45;49.51;99106.39;602178;235;64914;-65
2022/12/19 07:52:33;;;;;;;;;;;;;;;27.47;49.80;99112.31;602158;235;66815;-66
2022/12/19 07:55:01;;;;;;;;;;;;;;;27.45;50.62;99107.19;602127;235;65063;-66
2022/12/19 07:57:28;;;;;;;;;;;;;;;27.47;49.30;99109.61;602222;235;67201;-66
2022/12/19 07:59:55;;;;;;;;;;;;;;;27.47;49.35;99116.91;602078;235;67360;-66
2022/12/19 08:02:23;;;;;;;;;;;;;;;27.47;50.53;99109.61;602072;235;65006;-66
2022/12/19 08:04:51;;;;;;;;;;;;;;;27.45;50.44;99104.49;608326;232;64256;-67
2022/12/19 08:07:18;;;;;;;;;;;;;;;27.45;48.25;99107.19;610821;232;64701;-66
2022/12/19 08:09:46;;;;;;;;;;;;;;;27.46;49.35;99108.00;609998;232;65064;-67
2022/12/19 08:12:15;;;;;;;;;;;;;;;27.45;50.38;99117.99;610575;232;67227;-67
2022/12/19 08:14:44;;;;;;;;;;;;;;;27.45;48.41;99115.30;610979;232;66603;-67
2022/12/19 08:17:12;;;;;;;;;;;;;;;27.47;48.90;99125.01;609715;232;65049;-75
2022/12/19 08:19:39;;;;;;;;;;;;;;;27.47;48.57;99125.01;611172;232;66753;-65
2022/12/19 08:22:07;;;;;;;;;;;;;;;27.43;49.06;99140.94;611204;232;66734;-67
2022/12/19 08:24:34;;;;;;;;;;;;;;;27.41;48.23;99133.08;611252;232;65069;-67
2022/12/19 08:27:02;;;;;;;;;;;;;;;27.44;48.58;99142.55;610005;232;67242;-66
2022/12/19 08:29:29;;;;;;;;;;;;;;;27.45;50.48;99144.19;610054;232;67072;-66
2022/12/19 08:31:57;;;;;;;;;;;;;;;27.45;48.37;99133.39;598444;232;66506;-68
2022/12/19 08:34:24;;;;;;;;;;;;;;;27.48;49.15;99146.36;604310;232;67261;-67
2022/12/19 08:36:52;;;;;;;;;;;;;;;27.48;48.24;99143.66;608231;232;64995;-66
2022/12/19 08:39:19;;;;;;;;;;;;;;;27.48;49.03;99138.27;609966;232;62937;-66
2022/12/19 08:41:47;;;;;;;;;;;;;;;27.49;48.49;99130.97;610225;232;67208;-67
2022/12/19 08:44:15;;;;;;;;;;;;;;;27.49;48.98;99134.47;610296;232;67089;-66
2022/12/19 08:46:42;;;;;;;;;;;;;;;27.50;49.53;99137.98;610440;232;65113;-68
2022/12/19 08:49:10;;;;;;;;;;;;;;;27.50;49.02;99136.12;610415;232;67298;-67
2022/12/19 08:51:37;;;;;;;;;;;;;;;27.50;49.52;99136.12;610404;232;64759;-68
2022/12/19 08:54:05;;;;;;;;;;;;;;;27.51;49.09;99135.03;610437;232;64883;-67
2022/12/19 08:56:32;;;;;;;;;;;;;;;27.51;49.21;99134.22;610470;232;67259;-67
2022/12/19 08:59:00;;;;;;;;;;;;;;;27.52;48.99;99130.44;610346;232;67325;-67
2022/12/19 09:01:27;;;;;;;;;;;;;;;27.52;49.23;99127.73;610427;232;64849;-68
2022/12/19 09:03:56;;;;;;;;;;;;;;;27.53;49.62;99121.25;610394;232;67065;-69
2022/12/19 09:06:24;;;;;;;;;;;;;;;27.53;48.64;99118.55;610294;232;66851;-66
2022/12/19 09:08:52;;;;;;;;;;;;;;;27.51;48.13;99124.23;609975;232;64841;-66
2022/12/19 09:11:20;;;;;;;;;;;;;;;27.48;49.77;99115.85;609287;232;68304;-67
2022/12/19 09:13:49;;;;;;;;;;;;;;;27.45;50.39;99104.49;610175;232;65075;-67
2022/12/19 09:16:18;;;;;;;;;;;;;;;27.43;47.20;99103.94;610469;232;65037;-67
2022/12/19 09:18:47;;;;;;;;;;;;;;;27.42;46.81;99104.22;610381;232;64726;-67
2022/12/19 09:21:15;;;;;;;;;;;;;;;27.43;49.83;99098.53;610372;232;67156;-68
2022/12/19 09:23:42;;;;;;;;;;;;;;;27.42;47.48;99088.82;610421;232;65192;-68
2022/12/19 09:26:11;;;;;;;;;;;;;;;27.43;46.12;99084.23;610374;232;65259;-68
2022/12/19 09:28:40;;;;;;;;;;;;;;;27.45;48.29;99084.78;610211;232;67142;-69
2022/12/19 09:31:08;;;;;;;;;;;;;;;27.46;45.63;99078.30;610023;232;65069;-71
2022/12/19 09:33:36;;;;;;;;;;;;;;;27.47;45.67;99073.70;609903;232;64512;-68
2022/12/19 09:36:04;;;;;;;;;;;;;;;27.48;47.75;99078.05;610006;232;64939;-68
2022/12/19 09:38:33;;;;;;;;;;;;;;;27.50;46.90;99082.11;610029;232;65121;-66
2022/12/19 09:41:02;;;;;;;;;;;;;;;27.52;48.21;99079.13;609987;232;67222;-68
2022/12/19 09:43:47;;;;;;;;;;;;;;;27.53;46.83;99070.77;610025;232;67457;-67
2022/12/19 09:46:16;;;;;;;;;;;;;;;27.52;41.23;99063.73;610028;232;64992;-67
2022/12/19 09:48:45;;;;;;;;;;;;;;;27.47;41.32;99063.70;609831;232;65012;-71
2022/12/19 09:51:23;;;;;;;;;;;;;;;27.49;45.23;99055.36;609981;232;66932;-66
2022/12/19 09:54:02;;;;;;;;;;;;;;;27.49;49.99;99049.95;609146;232;62861;-67
2022/12/19 09:56:31;;;;;;;;;;;;;;;27.48;48.64;99038.34;609912;232;67195;-66
2022/12/19 09:59:00;;;;;;;;;;;;;;;27.51;47.83;99035.11;608928;232;67068;-68
2022/12/19 10:01:29;;;;;;;;;;;;;;;27.50;47.35;99028.10;602586;235;65012;-68
2022/12/19 10:04:01;;;;;;;;;;;;;;;27.52;48.16;99028.62;603426;235;67296;-65
2022/12/19 10:06:30;;;;;;;;;;;;;;;27.53;45.10;99024.86;603143;235;66857;-72
2022/12/19 10:09:00;;;;;;;;;;;;;;;27.56;45.87;99018.93;603133;235;46400;-70
2022/12/19 10:11:32;;;;;;;;;;;;;;;27.57;47.67;99011.63;603130;235;67050;-69
2022/12/19 10:14:17;;;;;;;;;;;;;;;27.58;47.78;99013.25;602151;235;65062;-67
2022/12/19 10:16:53;;;;;;;;;;;;;;;27.57;47.20;99007.03;603033;235;65105;-69
2022/12/19 10:19:28;;;;;;;;;;;;;;;27.58;48.56;99003.28;603107;235;67099;-72
2022/12/19 10:22:14;;;;;;;;;;;;;;;27.60;47.17;98995.70;602554;235;67049;-70
2022/12/19 10:24:43;;;;;;;;;;;;;;;27.61;47.75;99000.04;602613;235;65085;-72
2022/12/19 10:27:30;;;;;;;;;;;;;;;27.64;46.25;98993.30;602818;235;67236;-71
2022/12/19 10:30:02;;;;;;;;;;;;;;;27.65;47.37;98990.31;602687;234;67058;-68
2022/12/19 10:32:31;;;;;;;;;;;;;;;27.67;48.02;98995.45;602796;235;64942;-72
2022/12/19 10:34:59;;;;;;;;;;;;;;;27.69;47.45;98993.28;602679;234;67013;-72
2022/12/19 10:37:29;;;;;;;;;;;;;;;27.70;46.96;98994.11;602958;235;68424;-72
2022/12/19 10:40:14;;;;;;;;;;;;;;;27.71;46.71;98993.02;602635;235;65011;-70
2022/12/19 10:42:49;;;;;;;;;;;;;;;27.70;46.08;99000.32;603108;235;67275;-68
2022/12/19 10:45:18;;;;;;;;;;;;;;;27.72;47.23;98989.23;602937;234;64770;-67
2022/12/19 10:47:50;;;;;;;;;;;;;;;27.72;47.88;98989.23;603031;233;62866;-70
2022/12/19 10:50:20;;;;;;;;;;;;;;;27.72;47.84;98992.77;603043;235;67187;-71
2022/12/19 10:52:58;;;;;;;;;;;;;;;27.74;48.62;98984.38;603005;235;65042;-71
2022/12/19 10:55:43;;;;;;;;;;;;;;;27.75;48.47;98983.31;602863;234;65041;-67
2022/12/19 10:58:19;;;;;;;;;;;;;;;27.75;47.32;98980.62;602873;235;67220;-69
2022/12/19 11:00:49;;;;;;;;;;;;;;;27.76;48.08;98971.42;603059;235;66849;-70
2022/12/19 11:03:16;;;;;;;;;;;;;;;27.76;47.18;98974.13;602767;234;65147;-68
2022/12/19 11:05:46;;;;;;;;;;;;;;;27.76;45.62;98964.13;602912;235;66934;-74
2022/12/19 11:08:19;;;;;;;;;;;;;;;27.75;48.58;98967.92;603012;233;67081;-74
2022/12/19 11:10:46;;;;;;;;;;;;;;;27.77;43.82;98962.23;602786;232;64884;-71
2022/12/19 11:13:24;;;;;;;;;;;;;;;27.76;45.89;98964.13;602917;235;64771;-70
2022/12/19 11:15:58;;;;;;;;;;;;;;;27.71;47.17;98960.61;603024;235;67098;-68
2022/12/19 11:18:27;;;;;;;;;;;;;;;27.67;48.44;98958.45;603109;235;62929;-69
2022/12/19 11:20:56;;;;;;;;;;;;;;;27.70;47.22;98956.30;602847;234;67272;-71
2022/12/19 11:23:25;;;;;;;;;;;;;;;27.72;42.13;98954.11;603034;235;64753;-70
2022/12/19 11:25:56;;;;;;;;;;;;;;;27.73;47.15;98951.16;602855;235;63009;-70
2022/12/19 11:28:25;;;;;;;;;;;;;;;27.74;48.10;98954.66;605876;232;64534;-70
2022/12/19 11:30:57;;;;;;;;;;;;;;;27.71;40.51;98944.41;610200;232;67308;-73
2022/12/19 11:33:26;;;;;;;;;;;;;;;27.77;47.69;98948.72;604356;232;64639;-69
2022/12/19 11:35:54;;;;;;;;;;;;;;;27.78;48.04;98950.36;598330;232;66084;-68
2022/12/19 11:38:32;;;;;;;;;;;;;;;27.79;49.67;98949.27;609185;232;67954;-69
2022/12/19 11:41:01;;;;;;;;;;;;;;;27.78;47.80;98948.47;609682;232;65294;-68
2022/12/19 11:43:48;;;;;;;;;;;;;;;27.79;50.03;98949.27;609943;232;64901;-68
2022/12/19 11:46:26;;;;;;;;;;;;;;;27.78;49.21;98951.17;610332;232;64742;-69
2022/12/19 11:48:55;;;;;;;;;;;;;;;27.80;49.08;98949.05;610263;232;62958;-69
2022/12/19 11:51:30;;;;;;;;;;;;;;;27.79;48.93;98952.77;610395;232;64272;-71
2022/12/19 11:54:12;;;;;;;;;;;;;;;27.81;47.56;98947.15;610327;232;64939;-70
2022/12/19 11:56:39;;;;;;;;;;;;;;;27.79;48.27;98947.38;610184;232;65325;-71
2022/12/19 11:59:20;;;;;;;;;;;;;;;27.81;48.19;98957.95;610431;232;67602;-71
2022/12/19 12:02:06;;;;;;;;;;;;;;;27.81;48.85;98955.25;610414;232;66917;-70
2022/12/19 12:04:55;;;;;;;;;;;;;;;27.79;47.43;98951.97;610434;232;52157;-69
2022/12/19 12:07:27;;;;;;;;;;;;;;;27.78;47.90;98951.17;610240;232;68011;-70
2022/12/19 12:09:56;;;;;;;;;;;;;;;27.79;48.05;98960.08;610356;231;64813;-70
2022/12/19 12:12:25;;;;;;;;;;;;;;;27.79;46.81;98955.48;610394;232;65204;-70
2022/12/19 12:15:13;;;;;;;;;;;;;;;27.79;48.08;98954.67;610446;232;66940;-73
2022/12/19 12:17:44;;;;;;;;;;;;;;;27.78;48.21;98953.87;588980;238;66898;-72
2022/12/19 12:20:25;;;;;;;;;;;;;;;27.75;47.06;98954.41;588889;240;65129;-72
2022/12/19 12:23:03;;;;;;;;;;;;;;;27.73;46.65;98953.86;598880;232;66944;-69
2022/12/19 12:25:37;;;;;;;;;;;;;;;27.72;48.25;98949.55;610143;232;64739;-71
2022/12/19 12:28:12;;;;;;;;;;;;;;;27.71;48.45;98957.91;610820;232;65105;-71
2022/12/19 12:30:44;;;;;;;;;;;;;;;27.70;47.45;98951.70;611580;232;49055;-70
2022/12/19 12:33:16;;;;;;;;;;;;;;;27.70;46.87;98956.30;611868;232;66898;-72
2022/12/19 12:35:48;;;;;;;;;;;;;;;27.69;45.98;98960.86;611869;232;65198;-67
2022/12/19 12:38:32;;;;;;;;;;;;;;;27.68;47.21;98962.76;611766;232;66839;-72
2022/12/19 12:41:01;;;;;;;;;;;;;;;27.68;47.68;98959.25;611517;232;64719;-72
2022/12/19 12:43:33;;;;;;;;;;;;;;;27.70;46.73;98967.09;611862;232;65170;-73
2022/12/19 12:46:02;;;;;;;;;;;;;;;27.72;42.01;98965.76;607464;232;67420;-70
2022/12/19 12:48:40;;;;;;;;;;;;;;;27.77;45.03;98979.24;602960;235;67388;-69
2022/12/19 12:51:09;;;;;;;;;;;;;;;27.82;46.94;98978.48;602900;235;62928;-73
2022/12/19 12:53:38;;;;;;;;;;;;;;;27.82;45.61;98975.77;603032;235;65017;-72
2022/12/19 12:56:07;;;;;;;;;;;;;;;27.79;45.49;98981.69;605079;232;72490;-71
2022/12/19 12:58:50;;;;;;;;;;;;;;;27.78;47.63;98990.89;611869;232;65157;-73
2022/12/19 13:01:21;;;;;;;;;;;;;;;27.78;45.03;98990.89;611784;232;64857;-72
2022/12/19 13:04:02;;;;;;;;;;;;;;;27.74;44.39;98990.59;611704;232;64995;-72
2022/12/19 13:06:36;;;;;;;;;;;;;;;27.74;44.55;98987.08;611850;232;66005;-73
2022/12/19 13:09:11;;;;;;;;;;;;;;;27.74;45.34;98995.19;611834;232;64488;-71